Time;durP1;ratioP1;P1;durP2;ratioP2;P2;SDS_P1;SDS_P2;PMS_P1;PMS_P2;Temp;Humidity;BMP_temperature;BMP_pressure;BME280_temperature;BME280_humidity;BME280_pressure;Samples;Min_cycle;Max_cycle;Signal;HPM_P1;HPM_P2
2023/10/06 00:00:35;;;;;;;19.88;9.52;;;;;;;;;;2076447;28;20203;-57
2023/10/06 00:01:37;;;;;;;25.58;10.48;;;;;;;;;;2075745;28;20049;-57
2023/10/06 00:02:37;;;;;;;23.27;10.65;;;;;;;;;;2075872;28;20355;-56
2023/10/06 00:03:40;;;;;;;26.38;10.38;;;;;;;;;;2075622;28;20038;-61
2023/10/06 00:04:41;;;;;;;23.30;10.82;;;;;;;;;;2076056;28;20034;-56
2023/10/06 00:05:48;;;;;;;22.33;10.30;;;;;;;;;;2075213;28;20088;-57
2023/10/06 00:06:48;;;;;;;20.25;10.40;;;;;;;;;;2076230;28;20094;-56
2023/10/06 00:07:50;;;;;;;20.38;9.98;;;;;;;;;;2075833;28;20034;-56
2023/10/06 00:08:51;;;;;;;24.38;9.93;;;;;;;;;;2076136;28;20037;-57
2023/10/06 00:09:55;;;;;;;22.17;9.98;;;;;;;;;;2076116;28;20034;-56
2023/10/06 00:11:01;;;;;;;23.33;10.80;;;;;;;;;;2076081;28;20033;-56
2023/10/06 00:12:05;;;;;;;21.70;10.30;;;;;;;;;;2076128;28;20059;-57
2023/10/06 00:13:06;;;;;;;21.88;10.25;;;;;;;;;;2075681;28;20046;-56
2023/10/06 00:14:07;;;;;;;22.50;10.20;;;;;;;;;;2075687;28;20038;-57
2023/10/06 00:15:11;;;;;;;22.13;10.45;;;;;;;;;;2075338;28;20053;-57
2023/10/06 00:16:12;;;;;;;22.50;9.43;;;;;;;;;;2076124;28;20041;-56
2023/10/06 00:17:18;;;;;;;21.33;10.35;;;;;;;;;;2075597;28;20046;-56
2023/10/06 00:18:19;;;;;;;22.08;10.55;;;;;;;;;;2075960;28;20381;-58
2023/10/06 00:19:31;;;;;;;23.17;10.25;;;;;;;;;;2076074;28;20033;-60
2023/10/06 00:21:33;;;;;;;20.08;9.70;;;;;;;;;;2076087;28;20394;-57
2023/10/06 00:22:26;;;;;;;19.25;9.90;;;;;;;;;;2062352;28;20053;-56
2023/10/06 00:23:27;;;;;;;25.55;10.93;;;;;;;;;;2075386;28;20056;-56
2023/10/06 00:24:27;;;;;;;17.25;9.23;;;;;;;;;;2075100;28;20057;-56
2023/10/06 00:25:28;;;;;;;20.10;9.85;;;;;;;;;;2075378;28;20096;-55
2023/10/06 00:26:29;;;;;;;18.88;9.93;;;;;;;;;;2075880;28;20396;-56
2023/10/06 00:27:30;;;;;;;21.20;9.57;;;;;;;;;;2075861;28;20068;-56
2023/10/06 00:28:32;;;;;;;22.10;9.40;;;;;;;;;;2075869;28;20084;-56
2023/10/06 00:29:35;;;;;;;16.75;9.27;;;;;;;;;;2075817;28;20489;-56
2023/10/06 00:30:36;;;;;;;17.35;8.95;;;;;;;;;;2074385;28;20037;-60
2023/10/06 00:31:36;;;;;;;19.02;9.80;;;;;;;;;;2075314;28;20429;-56
2023/10/06 00:32:37;;;;;;;17.98;9.85;;;;;;;;;;2075198;28;20477;-55
2023/10/06 00:33:40;;;;;;;19.73;9.93;;;;;;;;;;2074750;28;20038;-55
2023/10/06 00:34:42;;;;;;;22.80;9.75;;;;;;;;;;2074195;28;20421;-56
2023/10/06 00:35:44;;;;;;;21.85;10.35;;;;;;;;;;2075198;28;20034;-56
2023/10/06 00:36:51;;;;;;;21.98;10.93;;;;;;;;;;2074385;28;20406;-56
2023/10/06 00:37:53;;;;;;;16.38;9.32;;;;;;;;;;2074580;28;20093;-57
2023/10/06 00:38:54;;;;;;;24.27;10.15;;;;;;;;;;2073840;28;20096;-56
2023/10/06 00:39:56;;;;;;;21.65;9.95;;;;;;;;;;2065829;28;20089;-59
2023/10/06 00:40:56;;;;;;;22.73;10.57;;;;;;;;;;2066358;28;20042;-57
2023/10/06 00:42:04;;;;;;;21.83;10.05;;;;;;;;;;2066910;28;20085;-57
2023/10/06 00:43:08;;;;;;;20.85;10.65;;;;;;;;;;2074696;28;20505;-56
2023/10/06 00:44:11;;;;;;;21.23;10.93;;;;;;;;;;2074995;28;20072;-56
2023/10/06 00:45:12;;;;;;;20.83;10.10;;;;;;;;;;2073688;28;20056;-55
2023/10/06 00:46:13;;;;;;;23.33;10.93;;;;;;;;;;2074584;28;20160;-56
2023/10/06 00:47:14;;;;;;;23.50;11.10;;;;;;;;;;2073767;28;20049;-56
2023/10/06 00:48:15;;;;;;;32.20;12.20;;;;;;;;;;2074420;28;20042;-56
2023/10/06 00:49:18;;;;;;;26.08;12.13;;;;;;;;;;2074229;28;20049;-56
2023/10/06 00:50:22;;;;;;;25.90;12.10;;;;;;;;;;2073736;28;20042;-55
2023/10/06 00:51:25;;;;;;;26.55;12.27;;;;;;;;;;2066237;28;20417;-56
2023/10/06 00:52:26;;;;;;;26.33;11.60;;;;;;;;;;2058703;28;20053;-56
2023/10/06 00:53:32;;;;;;;26.73;12.95;;;;;;;;;;2066358;28;20414;-56
2023/10/06 00:54:33;;;;;;;24.98;11.70;;;;;;;;;;2074329;28;20041;-56
2023/10/06 00:55:35;;;;;;;23.70;11.43;;;;;;;;;;2066301;28;20054;-56
2023/10/06 00:56:35;;;;;;;26.45;11.63;;;;;;;;;;2073744;28;20041;-56
2023/10/06 00:57:37;;;;;;;28.00;12.45;;;;;;;;;;2074662;28;20462;-56
2023/10/06 00:58:41;;;;;;;25.25;12.40;;;;;;;;;;2074377;28;20044;-56
2023/10/06 00:59:41;;;;;;;21.73;11.65;;;;;;;;;;2074370;28;20037;-56
2023/10/06 01:00:42;;;;;;;25.70;12.48;;;;;;;;;;2074375;28;20042;-55
2023/10/06 01:01:43;;;;;;;22.27;12.20;;;;;;;;;;2074293;28;20130;-56
2023/10/06 01:02:44;;;;;;;20.83;11.70;;;;;;;;;;2075067;28;20044;-56
2023/10/06 01:03:54;;;;;;;22.42;12.23;;;;;;;;;;2074418;28;20056;-56
2023/10/06 01:04:56;;;;;;;21.70;11.57;;;;;;;;;;2073031;28;20042;-55
2023/10/06 01:06:01;;;;;;;26.50;12.95;;;;;;;;;;2074179;28;20030;-56
2023/10/06 01:07:01;;;;;;;30.52;13.35;;;;;;;;;;2073613;28;20049;-56
2023/10/06 01:08:05;;;;;;;27.90;13.55;;;;;;;;;;2066024;28;20494;-56
2023/10/06 01:09:16;;;;;;;25.40;13.60;;;;;;;;;;2073522;28;20052;-56
2023/10/06 01:10:17;;;;;;;28.08;13.65;;;;;;;;;;2074867;28;20037;-56
2023/10/06 01:11:20;;;;;;;24.23;14.52;;;;;;;;;;2074052;28;20038;-55
2023/10/06 01:12:20;;;;;;;27.90;14.15;;;;;;;;;;2074070;28;20418;-56
2023/10/06 01:13:22;;;;;;;25.15;14.70;;;;;;;;;;2065383;28;20038;-56
2023/10/06 01:14:26;;;;;;;28.63;14.93;;;;;;;;;;2074137;28;20038;-55
2023/10/06 01:15:29;;;;;;;28.77;14.98;;;;;;;;;;2074122;28;20048;-56
2023/10/06 01:16:34;;;;;;;32.85;14.82;;;;;;;;;;2074744;28;20046;-56
2023/10/06 01:17:35;;;;;;;35.17;16.30;;;;;;;;;;2074326;28;20049;-56
2023/10/06 01:18:36;;;;;;;27.08;14.75;;;;;;;;;;2073461;28;20049;-55
2023/10/06 01:19:37;;;;;;;28.23;14.45;;;;;;;;;;2073414;28;20049;-56
2023/10/06 01:20:41;;;;;;;31.23;13.75;;;;;;;;;;2073022;28;20056;-56
2023/10/06 01:21:48;;;;;;;25.90;14.52;;;;;;;;;;2066041;28;20061;-56
2023/10/06 01:22:55;;;;;;;26.70;13.85;;;;;;;;;;2073013;28;20038;-55
2023/10/06 01:23:58;;;;;;;27.55;13.95;;;;;;;;;;2074482;28;20049;-59
2023/10/06 01:24:59;;;;;;;27.52;14.38;;;;;;;;;;2073494;28;20050;-56
2023/10/06 01:26:00;;;;;;;26.73;14.18;;;;;;;;;;2073920;28;20038;-56
2023/10/06 01:27:06;;;;;;;26.55;13.88;;;;;;;;;;2074002;28;20049;-56
2023/10/06 01:28:12;;;;;;;28.15;12.48;;;;;;;;;;2074364;28;20050;-56
2023/10/06 01:29:13;;;;;;;31.27;15.15;;;;;;;;;;2074208;28;20435;-56
2023/10/06 01:30:20;;;;;;;27.25;14.35;;;;;;;;;;2074003;28;20042;-56
2023/10/06 01:31:21;;;;;;;28.15;14.90;;;;;;;;;;2074680;28;20049;-56
2023/10/06 01:32:21;;;;;;;31.08;17.23;;;;;;;;;;2073920;28;20075;-56
2023/10/06 01:33:23;;;;;;;31.20;15.73;;;;;;;;;;2065991;28;20042;-56
2023/10/06 01:34:27;;;;;;;29.42;15.13;;;;;;;;;;2065190;28;20074;-56
2023/10/06 01:35:33;;;;;;;30.85;15.82;;;;;;;;;;2073109;28;20080;-56
2023/10/06 01:36:39;;;;;;;31.33;15.27;;;;;;;;;;2074045;28;20394;-56
2023/10/06 01:37:41;;;;;;;35.55;14.60;;;;;;;;;;2074619;28;20046;-56
2023/10/06 01:38:43;;;;;;;25.27;14.77;;;;;;;;;;2074194;28;20046;-56
2023/10/06 01:39:46;;;;;;;26.95;15.35;;;;;;;;;;2073757;28;20038;-56
2023/10/06 01:40:53;;;;;;;25.92;14.07;;;;;;;;;;2073392;28;20050;-55
2023/10/06 01:41:54;;;;;;;27.25;13.98;;;;;;;;;;2074603;28;20053;-56
2023/10/06 01:42:54;;;;;;;27.15;13.85;;;;;;;;;;2074494;28;20065;-56
2023/10/06 01:43:55;;;;;;;27.63;14.73;;;;;;;;;;2074671;28;20053;-56
2023/10/06 01:45:13;;;;;;;31.98;15.10;;;;;;;;;;2073639;28;20046;-56
2023/10/06 01:46:14;;;;;;;31.75;14.18;;;;;;;;;;2074204;28;20061;-56
2023/10/06 01:47:18;;;;;;;27.63;14.10;;;;;;;;;;2074007;28;20069;-56
2023/10/06 01:49:22;;;;;;;26.80;13.77;;;;;;;;;;2066013;28;20046;-55
2023/10/06 01:50:27;;;;;;;23.88;12.98;;;;;;;;;;2073479;28;20056;-56
2023/10/06 01:51:28;;;;;;;28.25;15.05;;;;;;;;;;2073030;28;20394;-56
2023/10/06 01:52:28;;;;;;;23.27;14.10;;;;;;;;;;2073986;28;20045;-56
2023/10/06 01:53:32;;;;;;;27.92;15.02;;;;;;;;;;2074060;28;20046;-55
2023/10/06 01:54:36;;;;;;;28.30;13.63;;;;;;;;;;2073740;28;20041;-55
2023/10/06 01:55:40;;;;;;;24.48;13.70;;;;;;;;;;2073245;28;20042;-55
2023/10/06 01:56:42;;;;;;;25.95;13.60;;;;;;;;;;2073177;28;20040;-56
2023/10/06 01:57:44;;;;;;;32.78;15.32;;;;;;;;;;2065709;28;20045;-56
2023/10/06 01:58:44;;;;;;;26.23;14.35;;;;;;;;;;2066002;28;20043;-56
2023/10/06 01:59:45;;;;;;;24.00;13.32;;;;;;;;;;2073171;28;20470;-55
2023/10/06 02:00:49;;;;;;;23.15;13.57;;;;;;;;;;2065241;28;20054;-56
2023/10/06 02:01:50;;;;;;;25.95;14.52;;;;;;;;;;2065888;28;20038;-56
2023/10/06 02:02:51;;;;;;;28.55;15.35;;;;;;;;;;2072776;28;20394;-56
2023/10/06 02:03:52;;;;;;;29.65;15.45;;;;;;;;;;2073878;28;20497;-55
2023/10/06 02:04:57;;;;;;;30.15;14.38;;;;;;;;;;2073678;28;20042;-56
2023/10/06 02:05:59;;;;;;;24.73;13.95;;;;;;;;;;2073214;28;20049;-56
2023/10/06 02:07:04;;;;;;;32.22;16.05;;;;;;;;;;2074312;28;20053;-55
2023/10/06 02:08:09;;;;;;;33.22;16.15;;;;;;;;;;2074247;28;20044;-55
2023/10/06 02:09:16;;;;;;;30.98;14.52;;;;;;;;;;2074269;28;20045;-56
2023/10/06 02:10:18;;;;;;;30.85;14.77;;;;;;;;;;2074610;28;20034;-56
2023/10/06 02:11:27;;;;;;;30.45;14.88;;;;;;;;;;2073915;28;20474;-55
2023/10/06 02:12:28;;;;;;;;;;;;;;;;;;2074134;28;20413;-55
2023/10/06 02:13:29;;;;;;;26.60;14.35;;;;;;;;;;2073597;28;19909;-55
2023/10/06 02:14:30;;;;;;;24.58;14.00;;;;;;;;;;2065294;28;20501;-56
2023/10/06 02:15:32;;;;;;;25.05;14.10;;;;;;;;;;2064689;28;20039;-56
2023/10/06 02:16:32;;;;;;;26.60;14.35;;;;;;;;;;2073103;28;20050;-56
2023/10/06 02:17:34;;;;;;;27.70;14.95;;;;;;;;;;2074402;28;20042;-55
2023/10/06 02:18:37;;;;;;;26.05;13.55;;;;;;;;;;2074416;28;20041;-56
2023/10/06 02:19:40;;;;;;;27.17;14.43;;;;;;;;;;2074466;28;20384;-56
2023/10/06 02:20:41;;;;;;;24.85;13.80;;;;;;;;;;2074058;28;20405;-56
2023/10/06 02:21:42;;;;;;;25.23;13.13;;;;;;;;;;2073598;28;20092;-56
2023/10/06 02:22:43;;;;;;;26.27;13.98;;;;;;;;;;2074271;28;20022;-56
2023/10/06 02:23:44;;;;;;;23.60;13.10;;;;;;;;;;2074176;28;20073;-56
2023/10/06 02:24:45;;;;;;;26.30;14.05;;;;;;;;;;2073508;28;20045;-56
2023/10/06 02:25:45;;;;;;;24.67;12.48;;;;;;;;;;2074647;28;20040;-56
2023/10/06 02:26:57;;;;;;;20.10;11.80;;;;;;;;;;2073878;28;20386;-54
2023/10/06 02:27:59;;;;;;;23.42;12.40;;;;;;;;;;2074374;28;20033;-53
2023/10/06 02:29:00;;;;;;;24.42;12.38;;;;;;;;;;2073572;28;20060;-55
2023/10/06 02:30:05;;;;;;;20.77;12.18;;;;;;;;;;2073200;28;20041;-56
2023/10/06 02:31:07;;;;;;;24.02;12.60;;;;;;;;;;2073585;28;20501;-56
2023/10/06 02:32:07;;;;;;;22.92;12.50;;;;;;;;;;2074511;28;20037;-56
2023/10/06 02:33:11;;;;;;;31.95;13.35;;;;;;;;;;2073600;28;20046;-56
2023/10/06 02:34:29;;;;;;;24.83;13.02;;;;;;;;;;2074108;28;20057;-56
2023/10/06 02:35:30;;;;;;;22.90;12.25;;;;;;;;;;2074025;28;20458;-55
2023/10/06 02:36:31;;;;;;;22.75;12.48;;;;;;;;;;2073485;28;20048;-56
2023/10/06 02:37:32;;;;;;;26.55;12.85;;;;;;;;;;2073780;28;20050;-55
2023/10/06 02:38:41;;;;;;;26.02;12.20;;;;;;;;;;2072894;28;20042;-56
2023/10/06 02:39:43;;;;;;;22.70;10.95;;;;;;;;;;2073822;28;20032;-56
2023/10/06 02:40:45;;;;;;;22.42;10.82;;;;;;;;;;2073235;28;20034;-56
2023/10/06 02:41:47;;;;;;;17.63;10.10;;;;;;;;;;2065001;28;20037;-56
2023/10/06 02:42:56;;;;;;;20.83;10.48;;;;;;;;;;2073545;28;20362;-56
2023/10/06 02:44:07;;;;;;;22.73;10.93;;;;;;;;;;2073820;28;20049;-55
2023/10/06 02:45:07;;;;;;;23.02;10.13;;;;;;;;;;2072907;28;20042;-56
2023/10/06 02:46:10;;;;;;;22.85;10.27;;;;;;;;;;2073485;28;20378;-56
2023/10/06 02:47:11;;;;;;;19.23;9.75;;;;;;;;;;2073482;28;20034;-56
2023/10/06 02:48:17;;;;;;;19.88;10.60;;;;;;;;;;2072748;28;20548;-56
2023/10/06 02:49:35;;;;;;;18.75;9.52;;;;;;;;;;2073498;28;20045;-56
2023/10/06 02:50:36;;;;;;;19.08;9.68;;;;;;;;;;2067709;28;20045;-56
2023/10/06 02:51:47;;;;;;;22.65;11.10;;;;;;;;;;2072761;28;20045;-56
2023/10/06 02:52:53;;;;;;;18.00;10.55;;;;;;;;;;2073307;28;20046;-56
2023/10/06 02:54:01;;;;;;;20.02;9.57;;;;;;;;;;2072975;28;20430;-56
2023/10/06 02:55:06;;;;;;;19.58;10.98;;;;;;;;;;2072718;28;20049;-56
2023/10/06 02:56:09;;;;;;;19.67;10.30;;;;;;;;;;2072904;28;20045;-56
2023/10/06 02:57:10;;;;;;;18.38;9.52;;;;;;;;;;2073281;28;20033;-56
2023/10/06 02:58:27;;;;;;;20.50;9.88;;;;;;;;;;2074008;28;20034;-56
2023/10/06 02:59:34;;;;;;;22.70;10.02;;;;;;;;;;2074122;28;20041;-56
2023/10/06 03:00:36;;;;;;;20.05;11.10;;;;;;;;;;2073372;28;20585;-55
2023/10/06 03:01:38;;;;;;;19.02;10.00;;;;;;;;;;2073618;28;20041;-56
2023/10/06 03:02:40;;;;;;;18.90;9.60;;;;;;;;;;2073389;28;20056;-56
2023/10/06 03:03:41;;;;;;;16.80;9.18;;;;;;;;;;2073988;28;20377;-56
2023/10/06 03:04:43;;;;;;;22.27;10.27;;;;;;;;;;2073916;28;20045;-56
2023/10/06 03:05:51;;;;;;;16.88;9.23;;;;;;;;;;2073305;28;20034;-56
2023/10/06 03:06:56;;;;;;;18.05;9.43;;;;;;;;;;2065675;28;20042;-56
2023/10/06 03:07:58;;;;;;;17.35;9.52;;;;;;;;;;2073521;28;20478;-56
2023/10/06 03:09:06;;;;;;;26.73;10.63;;;;;;;;;;2073338;28;20037;-55
2023/10/06 03:10:11;;;;;;;17.40;8.98;;;;;;;;;;2072815;28;20057;-56
2023/10/06 03:11:22;;;;;;;21.15;10.50;;;;;;;;;;2065637;28;20402;-56
2023/10/06 03:13:32;;;;;;;15.48;9.20;;;;;;;;;;2073876;28;20045;-56
2023/10/06 03:14:39;;;;;;;22.27;10.55;;;;;;;;;;2072649;28;20417;-56
2023/10/06 03:15:47;;;;;;;17.92;9.75;;;;;;;;;;2066197;28;20055;-56
2023/10/06 03:16:51;;;;;;;20.13;10.40;;;;;;;;;;2065595;28;20033;-56
2023/10/06 03:17:53;;;;;;;19.42;9.73;;;;;;;;;;2065188;28;20482;-56
2023/10/06 03:18:57;;;;;;;17.42;9.75;;;;;;;;;;2064739;28;20076;-56
2023/10/06 03:20:10;;;;;;;17.25;9.40;;;;;;;;;;2056641;28;20471;-56
2023/10/06 03:22:13;;;;;;;19.67;10.30;;;;;;;;;;2073084;28;20057;-56
2023/10/06 03:24:05;;;;;;;19.77;10.27;;;;;;;;;;2073630;28;20041;-56
2023/10/06 03:24:53;;;;;;;17.13;9.63;;;;;;;;;;2059895;28;20101;-56
2023/10/06 03:25:56;;;;;;;19.45;9.98;;;;;;;;;;2073494;28;20042;-56
2023/10/06 03:26:57;;;;;;;20.88;9.52;;;;;;;;;;2065151;28;20050;-56
2023/10/06 03:28:01;;;;;;;16.60;9.15;;;;;;;;;;2072308;28;20049;-56
2023/10/06 03:29:02;;;;;;;19.63;9.20;;;;;;;;;;2064849;28;20046;-56
2023/10/06 03:30:11;;;;;;;22.10;10.88;;;;;;;;;;2064932;28;20046;-56
2023/10/06 03:32:28;;;;;;;18.80;9.23;;;;;;;;;;2073454;28;20045;-56
2023/10/06 03:33:29;;;;;;;18.65;10.30;;;;;;;;;;2072459;28;20041;-56
2023/10/06 03:34:31;;;;;;;17.90;10.32;;;;;;;;;;2065217;28;20042;-56
2023/10/06 03:35:45;;;;;;;20.38;10.60;;;;;;;;;;2073534;28;20045;-56
2023/10/06 03:36:52;;;;;;;18.60;9.88;;;;;;;;;;2066272;28;20454;-56
2023/10/06 03:38:07;;;;;;;18.63;10.02;;;;;;;;;;2066106;28;20375;-56
2023/10/06 03:39:10;;;;;;;23.20;10.82;;;;;;;;;;2072756;28;20045;-56
2023/10/06 03:40:19;;;;;;;19.20;10.52;;;;;;;;;;2072355;28;20054;-56
2023/10/06 03:41:24;;;;;;;21.25;10.48;;;;;;;;;;2072729;28;20498;-56
2023/10/06 03:42:27;;;;;;;22.83;9.88;;;;;;;;;;2071699;28;20049;-56
2023/10/06 03:43:36;;;;;;;18.85;10.50;;;;;;;;;;2064979;28;20038;-56
2023/10/06 03:44:37;;;;;;;18.52;10.38;;;;;;;;;;2065670;28;20042;-55
2023/10/06 03:45:40;;;;;;;18.48;10.65;;;;;;;;;;2072987;28;20050;-56
2023/10/06 03:46:40;;;;;;;15.88;9.43;;;;;;;;;;2073373;28;20065;-56
2023/10/06 03:47:43;;;;;;;18.98;10.65;;;;;;;;;;2072609;28;20533;-56
2023/10/06 03:48:44;;;;;;;23.42;11.68;;;;;;;;;;2064580;28;20038;-56
2023/10/06 03:49:47;;;;;;;19.10;10.10;;;;;;;;;;2072544;28;20045;-55
2023/10/06 03:50:47;;;;;;;20.08;10.38;;;;;;;;;;2072573;28;20046;-56
2023/10/06 03:51:48;;;;;;;19.52;10.13;;;;;;;;;;2064586;28;20475;-56
2023/10/06 03:52:49;;;;;;;20.95;10.60;;;;;;;;;;2073051;28;20084;-56
2023/10/06 03:53:49;;;;;;;19.50;10.77;;;;;;;;;;2073182;28;20041;-56
2023/10/06 03:54:52;;;;;;;17.52;10.30;;;;;;;;;;2073655;28;20113;-56
2023/10/06 03:55:53;;;;;;;21.17;9.98;;;;;;;;;;2073777;28;20034;-56
2023/10/06 03:56:54;;;;;;;24.88;10.38;;;;;;;;;;2073376;28;20045;-56
2023/10/06 03:57:55;;;;;;;19.23;10.27;;;;;;;;;;2073637;28;20045;-56
2023/10/06 03:58:56;;;;;;;24.70;11.05;;;;;;;;;;2073735;28;20041;-56
2023/10/06 03:59:58;;;;;;;16.70;10.40;;;;;;;;;;2073912;28;20466;-56
2023/10/06 04:01:07;;;;;;;18.17;9.18;;;;;;;;;;2073731;28;20038;-56
2023/10/06 04:02:08;;;;;;;21.77;11.32;;;;;;;;;;2074053;28;20038;-56
2023/10/06 04:03:17;;;;;;;17.27;10.02;;;;;;;;;;2073821;28;20034;-56
2023/10/06 04:04:22;;;;;;;16.38;9.73;;;;;;;;;;2073788;28;20045;-56
2023/10/06 04:05:22;;;;;;;18.17;9.93;;;;;;;;;;2073901;28;20029;-56
2023/10/06 04:06:23;;;;;;;18.77;10.05;;;;;;;;;;2073575;28;20060;-56
2023/10/06 04:07:24;;;;;;;18.35;10.40;;;;;;;;;;2073734;28;20030;-56
2023/10/06 04:08:25;;;;;;;21.42;10.65;;;;;;;;;;2073202;28;20050;-56
2023/10/06 04:09:30;;;;;;;19.00;10.57;;;;;;;;;;2073554;28;20057;-56
2023/10/06 04:10:33;;;;;;;19.02;11.07;;;;;;;;;;2073324;28;20053;-56
2023/10/06 04:11:34;;;;;;;20.77;10.23;;;;;;;;;;2072952;28;20049;-56
2023/10/06 04:12:34;;;;;;;19.70;10.02;;;;;;;;;;2073491;28;20466;-56
2023/10/06 04:13:38;;;;;;;20.42;10.70;;;;;;;;;;2073937;28;20030;-56
2023/10/06 04:14:39;;;;;;;19.80;10.95;;;;;;;;;;2073014;28;20038;-56
2023/10/06 04:15:46;;;;;;;18.58;10.68;;;;;;;;;;2073144;28;20054;-56
2023/10/06 04:16:46;;;;;;;16.48;8.85;;;;;;;;;;2073421;28;20528;-56
2023/10/06 04:17:47;;;;;;;18.05;10.35;;;;;;;;;;2073596;28;20050;-56
2023/10/06 04:18:48;;;;;;;20.35;10.65;;;;;;;;;;2073522;28;20033;-56
2023/10/06 04:19:48;;;;;;;17.48;10.50;;;;;;;;;;2073252;28;20065;-56
2023/10/06 04:20:50;;;;;;;17.65;10.77;;;;;;;;;;2073106;28;20044;-56
2023/10/06 04:21:51;;;;;;;16.90;9.80;;;;;;;;;;2073451;28;20038;-56
2023/10/06 04:22:52;;;;;;;17.67;10.15;;;;;;;;;;2073415;28;20057;-56
2023/10/06 04:23:53;;;;;;;17.13;9.73;;;;;;;;;;2073504;28;20038;-56
2023/10/06 04:24:53;;;;;;;18.15;10.15;;;;;;;;;;2073534;28;20046;-56
2023/10/06 04:25:57;;;;;;;16.40;10.35;;;;;;;;;;2073986;28;20378;-56
2023/10/06 04:26:58;;;;;;;17.70;9.65;;;;;;;;;;2073489;28;20470;-56
2023/10/06 04:27:59;;;;;;;18.77;10.07;;;;;;;;;;2073469;28;20046;-57
2023/10/06 04:28:59;;;;;;;19.15;10.48;;;;;;;;;;2073283;28;20053;-56
2023/10/06 04:30:00;;;;;;;15.00;9.48;;;;;;;;;;2073265;28;20037;-56
2023/10/06 04:31:01;;;;;;;18.40;10.52;;;;;;;;;;2073783;28;20073;-56
2023/10/06 04:32:01;;;;;;;22.65;10.45;;;;;;;;;;2074037;28;20145;-56
2023/10/06 04:33:05;;;;;;;16.50;10.05;;;;;;;;;;2074048;28;20385;-57
2023/10/06 04:34:06;;;;;;;18.73;9.90;;;;;;;;;;2073349;28;20048;-56
2023/10/06 04:35:19;;;;;;;18.52;10.60;;;;;;;;;;2073609;28;20056;-56
2023/10/06 04:36:24;;;;;;;17.58;9.82;;;;;;;;;;2073893;28;20045;-57
2023/10/06 04:37:24;;;;;;;18.90;9.52;;;;;;;;;;2073447;28;20046;-58
2023/10/06 04:38:29;;;;;;;17.38;10.20;;;;;;;;;;2072679;28;20042;-56
2023/10/06 04:39:29;;;;;;;18.70;10.02;;;;;;;;;;2073164;28;20488;-56
2023/10/06 04:40:32;;;;;;;19.02;10.13;;;;;;;;;;2075086;28;20076;-57
2023/10/06 04:41:33;;;;;;;19.48;10.82;;;;;;;;;;2075013;28;20045;-56
2023/10/06 04:42:34;;;;;;;18.58;10.07;;;;;;;;;;2075144;28;20050;-56
2023/10/06 04:43:35;;;;;;;19.95;10.50;;;;;;;;;;2074312;28;20049;-56
2023/10/06 04:44:36;;;;;;;19.17;11.27;;;;;;;;;;2074851;28;20037;-56
2023/10/06 04:45:38;;;;;;;18.98;10.27;;;;;;;;;;2074922;28;20132;-56
2023/10/06 04:46:40;;;;;;;18.52;9.95;;;;;;;;;;2074838;28;20042;-57
2023/10/06 04:47:41;;;;;;;19.85;11.00;;;;;;;;;;2074992;28;20034;-56
2023/10/06 04:48:41;;;;;;;19.63;10.32;;;;;;;;;;2074813;28;20038;-56
2023/10/06 04:49:42;;;;;;;22.77;10.82;;;;;;;;;;2074806;28;20073;-56
2023/10/06 04:50:43;;;;;;;22.58;11.98;;;;;;;;;;2075025;28;20037;-56
2023/10/06 04:51:44;;;;;;;18.15;10.63;;;;;;;;;;2074692;28;20042;-56
2023/10/06 04:52:46;;;;;;;19.40;10.98;;;;;;;;;;2075170;28;20029;-56
2023/10/06 04:53:47;;;;;;;19.02;11.27;;;;;;;;;;2074921;28;20037;-56
2023/10/06 04:54:48;;;;;;;18.23;11.07;;;;;;;;;;2075039;28;20038;-56
2023/10/06 04:55:48;;;;;;;17.58;10.38;;;;;;;;;;2074801;28;20041;-56
2023/10/06 04:56:52;;;;;;;18.85;10.98;;;;;;;;;;2074231;28;20038;-57
2023/10/06 04:57:52;;;;;;;20.98;12.10;;;;;;;;;;2074614;28;20046;-56
2023/10/06 04:58:53;;;;;;;19.92;10.95;;;;;;;;;;2074338;28;20034;-56
2023/10/06 04:59:54;;;;;;;21.48;12.13;;;;;;;;;;2075154;28;20045;-56
2023/10/06 05:00:59;;;;;;;19.58;11.50;;;;;;;;;;2075178;28;20061;-56
2023/10/06 05:02:02;;;;;;;17.55;10.68;;;;;;;;;;2074579;28;20140;-56
2023/10/06 05:03:04;;;;;;;19.63;10.48;;;;;;;;;;2074422;28;20056;-56
2023/10/06 05:04:08;;;;;;;17.48;10.93;;;;;;;;;;2075093;28;20046;-56
2023/10/06 05:05:12;;;;;;;19.02;10.98;;;;;;;;;;2074767;28;20033;-56
2023/10/06 05:06:15;;;;;;;16.17;9.90;;;;;;;;;;2074620;28;20046;-56
2023/10/06 05:07:16;;;;;;;16.90;9.90;;;;;;;;;;2074616;28;20467;-56
2023/10/06 05:08:17;;;;;;;18.20;9.13;;;;;;;;;;2074874;28;20208;-56
2023/10/06 05:09:18;;;;;;;18.73;9.77;;;;;;;;;;2074693;28;20042;-56
2023/10/06 05:10:25;;;;;;;17.70;9.80;;;;;;;;;;2074721;28;20042;-55
2023/10/06 05:11:26;;;;;;;16.95;9.93;;;;;;;;;;2074593;28;20045;-56
2023/10/06 05:12:27;;;;;;;18.13;9.80;;;;;;;;;;2074845;28;20034;-56
2023/10/06 05:13:27;;;;;;;20.40;9.43;;;;;;;;;;2074614;28;20046;-56
2023/10/06 05:14:28;;;;;;;18.48;10.07;;;;;;;;;;2074647;28;20060;-56
2023/10/06 05:15:32;;;;;;;20.08;10.20;;;;;;;;;;2073824;28;20410;-55
2023/10/06 05:16:34;;;;;;;16.92;9.43;;;;;;;;;;2074828;28;20049;-56
2023/10/06 05:17:36;;;;;;;16.05;9.80;;;;;;;;;;2074405;28;20044;-55
2023/10/06 05:18:38;;;;;;;16.08;9.70;;;;;;;;;;2074445;28;20037;-55
2023/10/06 05:19:39;;;;;;;15.27;9.77;;;;;;;;;;2074620;28;20049;-55
2023/10/06 05:20:40;;;;;;;16.40;9.70;;;;;;;;;;2074224;28;20049;-55
2023/10/06 05:21:40;;;;;;;19.25;9.80;;;;;;;;;;2074650;28;20038;-55
2023/10/06 05:22:41;;;;;;;16.88;9.98;;;;;;;;;;2074783;28;20044;-55
2023/10/06 05:23:45;;;;;;;15.50;9.13;;;;;;;;;;2074541;28;20034;-54
2023/10/06 05:24:47;;;;;;;20.10;9.90;;;;;;;;;;2074525;28;20042;-55
2023/10/06 05:25:48;;;;;;;18.88;9.02;;;;;;;;;;2074413;28;20041;-55
2023/10/06 05:26:50;;;;;;;22.73;10.23;;;;;;;;;;2074641;28;20513;-55
2023/10/06 05:27:50;;;;;;;15.05;9.48;;;;;;;;;;2074439;28;20030;-55
2023/10/06 05:28:51;;;;;;;15.82;9.18;;;;;;;;;;2074383;28;20042;-55
2023/10/06 05:29:52;;;;;;;16.55;9.32;;;;;;;;;;2074592;28;20123;-55
2023/10/06 05:30:52;;;;;;;16.13;8.65;;;;;;;;;;2074921;28;20501;-55
2023/10/06 05:31:53;;;;;;;16.58;8.73;;;;;;;;;;2074581;28;20037;-56
2023/10/06 05:32:57;;;;;;;15.77;9.32;;;;;;;;;;2074466;28;20046;-55
2023/10/06 05:33:58;;;;;;;17.50;8.88;;;;;;;;;;2074510;28;20680;-55
2023/10/06 05:34:59;;;;;;;14.25;8.63;;;;;;;;;;2074399;28;20045;-55
2023/10/06 05:36:00;;;;;;;15.48;8.95;;;;;;;;;;2074256;28;20042;-55
2023/10/06 05:37:00;;;;;;;13.75;8.73;;;;;;;;;;2073403;28;20370;-54
2023/10/06 05:38:06;;;;;;;17.88;8.77;;;;;;;;;;2074139;28;20034;-54
2023/10/06 05:39:09;;;;;;;12.45;7.82;;;;;;;;;;2074771;28;20045;-55
2023/10/06 05:40:12;;;;;;;15.43;8.13;;;;;;;;;;2074783;28;20382;-54
2023/10/06 05:41:13;;;;;;;15.15;7.75;;;;;;;;;;2074484;28;20125;-55
2023/10/06 05:42:13;;;;;;;13.82;8.13;;;;;;;;;;2074020;28;20052;-56
2023/10/06 05:43:17;;;;;;;14.45;7.80;;;;;;;;;;2074523;28;20046;-55
2023/10/06 05:44:18;;;;;;;15.30;7.45;;;;;;;;;;2073917;28;20042;-55
2023/10/06 05:45:18;;;;;;;12.20;7.40;;;;;;;;;;2074505;28;20050;-55
2023/10/06 05:46:19;;;;;;;13.35;7.07;;;;;;;;;;2074501;28;20042;-55
2023/10/06 05:47:21;;;;;;;18.38;7.47;;;;;;;;;;2074573;28;20497;-55
2023/10/06 05:48:22;;;;;;;12.07;7.10;;;;;;;;;;2074435;28;20049;-55
2023/10/06 05:49:23;;;;;;;11.57;6.50;;;;;;;;;;2074425;28;20042;-55
2023/10/06 05:50:29;;;;;;;11.60;6.95;;;;;;;;;;2074124;28;20046;-55
2023/10/06 05:51:33;;;;;;;15.15;7.18;;;;;;;;;;2074377;28;20038;-55
2023/10/06 05:52:38;;;;;;;12.85;6.60;;;;;;;;;;2074381;28;20049;-55
2023/10/06 05:53:40;;;;;;;13.23;7.35;;;;;;;;;;2074600;28;20049;-56
2023/10/06 05:54:42;;;;;;;11.57;6.72;;;;;;;;;;2074651;28;20033;-57
2023/10/06 05:55:43;;;;;;;13.95;6.13;;;;;;;;;;2074316;28;20048;-56
2023/10/06 05:56:45;;;;;;;10.73;6.40;;;;;;;;;;2074564;28;20121;-55
2023/10/06 05:57:52;;;;;;;12.80;7.22;;;;;;;;;;2074248;28;20038;-55
2023/10/06 05:58:53;;;;;;;13.00;6.88;;;;;;;;;;2074451;28;20034;-56
2023/10/06 05:59:55;;;;;;;11.30;6.50;;;;;;;;;;2074022;28;20048;-56
2023/10/06 06:01:00;;;;;;;13.85;7.43;;;;;;;;;;2074112;28;20045;-55
2023/10/06 06:02:02;;;;;;;13.73;7.20;;;;;;;;;;2074017;28;20050;-56
2023/10/06 06:03:13;;;;;;;9.52;6.63;;;;;;;;;;2074341;28;20044;-56
2023/10/06 06:04:15;;;;;;;14.52;7.20;;;;;;;;;;2074281;28;20398;-55
2023/10/06 06:05:16;;;;;;;16.27;7.32;;;;;;;;;;2074414;28;20375;-56
2023/10/06 06:06:22;;;;;;;12.15;6.45;;;;;;;;;;2074292;28;20064;-55
2023/10/06 06:07:23;;;;;;;11.02;6.28;;;;;;;;;;2073772;28;20042;-56
2023/10/06 06:08:24;;;;;;;12.45;6.80;;;;;;;;;;2074023;28;20042;-56
2023/10/06 06:09:24;;;;;;;10.65;6.47;;;;;;;;;;2073628;28;20498;-56
2023/10/06 06:10:28;;;;;;;10.30;6.55;;;;;;;;;;2073851;28;20133;-56
2023/10/06 06:11:31;;;;;;;12.48;6.53;;;;;;;;;;2073658;28;20049;-56
2023/10/06 06:12:31;;;;;;;11.77;6.53;;;;;;;;;;2066024;28;20053;-57
2023/10/06 06:13:34;;;;;;;11.50;6.18;;;;;;;;;;2073093;28;20049;-56